GMT,Max TemperatureF,Mean TemperatureF,Min TemperatureF,Max Dew PointF,MeanDew PointF,Min DewpointF,Max Humidity, Mean Humidity, Min Humidity, Max Sea Level PressureIn, Mean Sea Level PressureIn, Min Sea Level PressureIn, Max VisibilityMiles, Mean VisibilityMiles, Min VisibilityMiles, Max Wind SpeedMPH, Mean Wind SpeedMPH, Max Gust SpeedMPH,PrecipitationIn, CloudCover, Events, WindDirDegrees
2013-2-1,44,40,36,41,37,35,100,85,71,29.81,29.58,29.44,16,6,4,31,19,46,0.12,4,Rain,319
2013-2-2,44,38,33,39,36,34,100,88,76,30.29,30.21,30.00,16,7,6,9,6,,0.02,4,Rain,257
2013-2-3,48,43,38,48,46,41,100,95,93,30.11,29.98,29.89,12,6,1,27,18,39,0.02,7,Rain,261
2013-2-4,43,39,35,39,34,30,93,79,68,29.93,29.84,29.71,19,7,3,31,25,48,0.08,5,Rain-Hail,270
2013-2-5,44,36,30,39,35,28,100,86,69,29.70,29.55,29.47,16,7,3,29,21,47,0.28,4,Rain-Snow,290
2013-2-6,42,38,35,36,33,30,93,80,65,30.33,30.21,29.93,16,7,5,22,16,32,0.04,3,Rain,339
2013-2-7,44,38,32,43,39,32,100,90,76,30.34,30.10,30.06,16,6,0,36,14,50,0.24,5,Fog-Rain,294
2013-2-8,48,44,39,43,40,34,100,86,70,30.32,30.28,30.24,19,7,6,25,13,,0.01,4,Rain,280
2013-2-9,46,42,39,46,44,40,100,97,92,30.21,30.00,29.86,16,3,0,11,8,,0.04,8,Fog-Rain,188
2013-2-10,43,42,39,44,38,36,97,90,81,29.62,29.33,29.24,12,6,5,16,12,,0.12,6,Rain,295
2013-2-11,37,37,35,39,36,36,100,96,93,29.72,29.56,29.34,6,4,0,9,5,,0.00,7,Fog-Rain,89
2013-2-12,39,37,35,39,37,35,100,99,93,29.96,29.90,29.82,9,1,0,9,7,,0.03,8,Fog-Rain,135
2013-2-13,49,43,37,50,47,37,100,98,88,29.88,29.66,29.59,16,4,0,21,14,32,0.31,8,Fog-Rain,214
2013-2-14,46,44,41,39,38,36,93,79,66,29.98,29.85,29.68,19,7,6,21,15,34,0.04,3,Rain,277
2013-2-15,46,40,35,41,39,37,100,88,71,30.11,30.06,30.04,19,7,6,10,7,,0.02,6,Rain,188
2013-2-16,50,46,41,48,46,43,100,96,87,30.06,29.96,29.92,16,5,0,20,12,30,0.03,6,Fog-Rain,157
2013-2-17,48,45,42,41,39,36,93,80,71,29.91,29.84,29.80,19,7,6,23,18,34,0.00,6,,143
2013-2-18,44,38,33,37,35,32,93,84,71,29.96,29.91,29.86,16,7,6,18,14,,0.00,4,,125
2013-2-19,46,42,38,39,39,37,100,84,65,30.04,30.00,29.98,16,7,6,14,10,,0.00,4,,133
2013-2-20,44,36,29,37,34,27,100,84,66,30.05,30.00,29.98,6,3,0,18,13,31,0.00,4,Fog,131
2013-2-21,37,35,32,34,29,28,87,81,70,30.10,30.05,30.01,16,6,4,25,21,38,0.00,7,,131
2013-2-22,33,30,27,27,26,25,86,77,68,30.25,30.17,30.09,19,7,6,14,11,,0.00,7,,128
2013-2-23,33,32,30,28,26,24,87,77,66,30.32,30.26,30.24,6,6,6,6,4,,0.00,8,Rain,77
2013-2-24,40,34,27,28,24,21,93,65,45,30.45,30.38,30.36,19,7,6,12,8,21,0.00,1,,115
2013-2-25,42,34,26,32,28,25,93,71,57,30.56,30.50,30.45,19,7,6,13,8,,0.00,3,,123
2013-2-26,39,34,30,35,32,28,93,87,79,30.63,30.57,30.54,19,7,4,9,6,,0.00,6,,107
2013-2-27,39,38,36,37,36,35,93,89,87,30.69,30.65,30.63,6,5,4,7,2,,0.00,8,,37
2013-2-28,45,39,33,41,37,33,100,91,76,30.65,30.55,30.51,9,4,0,9,7,,0.00,6,Fog,32